Time;durP1;ratioP1;P1;durP2;ratioP2;P2;SDS_P1;SDS_P2;PMS_P1;PMS_P2;Temp;Humidity;BMP_temperature;BMP_pressure;BME280_temperature;BME280_humidity;BME280_pressure;Samples;Min_cycle;Max_cycle;Signal;HPM_P1;HPM_P2
2021/08/25 00:01:39;;;;;;;9.13;8.33;;;16.80;79.50;;;;;;4971094;28;20714;-85
2021/08/25 00:04:05;;;;;;;9.23;8.47;;;16.80;80.00;;;;;;4960835;28;20311;-86
2021/08/25 00:06:31;;;;;;;9.93;9.03;;;16.70;80.20;;;;;;4950710;28;20225;-87
2021/08/25 00:08:58;;;;;;;9.83;8.93;;;16.60;80.20;;;;;;4957464;28;20674;-86
2021/08/25 00:11:24;;;;;;;10.10;9.20;;;16.60;80.40;;;;;;4955243;28;20200;-86
2021/08/25 00:13:50;;;;;;;10.90;9.80;;;16.50;81.10;;;;;;4956891;28;20246;-86
2021/08/25 00:16:16;;;;;;;8.90;8.20;;;16.50;81.30;;;;;;4951811;28;20190;-86
2021/08/25 00:18:42;;;;;;;9.77;8.83;;;16.60;80.90;;;;;;4968149;29;20180;-86
2021/08/25 00:21:07;;;;;;;10.23;9.43;;;16.60;80.50;;;;;;4975023;28;20214;-86
2021/08/25 00:23:33;;;;;;;10.57;9.67;;;16.60;80.40;;;;;;4965440;28;20200;-86
2021/08/25 00:25:59;;;;;;;9.37;8.57;;;16.50;80.80;;;;;;4974225;28;20274;-84
2021/08/25 00:28:25;;;;;;;10.03;9.13;;;16.50;82.00;;;;;;4984643;28;20231;-86
2021/08/25 00:30:50;;;;;;;9.70;8.73;;;16.50;80.60;;;;;;4956943;29;20691;-86
2021/08/25 00:33:16;;;;;;;9.37;8.67;;;16.50;80.70;;;;;;4955687;28;20203;-86
2021/08/25 00:35:42;;;;;;;9.60;8.80;;;16.40;80.90;;;;;;4971592;28;20386;-86
2021/08/25 00:38:08;;;;;;;10.40;9.57;;;16.40;81.20;;;;;;4956035;28;20232;-86
2021/08/25 00:40:34;;;;;;;8.60;8.00;;;16.50;80.60;;;;;;4958839;28;20209;-85
2021/08/25 00:43:07;;;;;;;9.80;8.90;;;16.60;80.60;;;;;;4965410;28;20222;-86
2021/08/25 00:45:53;;;;;;;9.70;8.80;;;16.50;80.60;;;;;;4953088;28;20207;-86
2021/08/25 00:48:19;;;;;;;10.60;9.67;;;16.40;80.50;;;;;;4969978;28;20209;-87
2021/08/25 00:50:49;;;;;;;9.50;8.70;;;16.40;80.70;;;;;;4948289;29;20314;-86
2021/08/25 00:53:15;;;;;;;10.43;9.53;;;16.40;81.00;;;;;;4952020;28;20681;-86
2021/08/25 00:55:41;;;;;;;10.40;9.40;;;16.30;80.80;;;;;;4955020;28;20224;-86
2021/08/25 00:58:08;;;;;;;9.90;9.03;;;16.40;81.00;;;;;;4961745;28;20245;-87
2021/08/25 01:01:02;;;;;;;10.73;9.93;;;16.40;80.90;;;;;;4956895;28;20204;-86
2021/08/25 01:03:57;;;;;;;10.60;9.60;;;16.30;80.80;;;;;;4955936;28;20697;-87
2021/08/25 01:06:24;;;;;;;10.67;9.67;;;16.20;81.40;;;;;;4953119;28;20223;-85
2021/08/25 01:08:50;;;;;;;11.03;10.13;;;16.10;81.70;;;;;;4956254;28;20207;-86
2021/08/25 01:11:16;;;;;;;10.50;9.60;;;16.00;81.80;;;;;;4956345;28;20187;-86
2021/08/25 01:13:42;;;;;;;10.40;9.47;;;16.00;82.40;;;;;;4949164;28;20488;-87
2021/08/25 01:16:08;;;;;;;10.90;10.00;;;16.00;82.70;;;;;;4951949;28;20221;-86
2021/08/25 01:18:34;;;;;;;11.10;10.17;;;16.00;82.00;;;;;;4968338;28;20188;-87
2021/08/25 01:21:02;;;;;;;10.43;9.53;;;16.10;81.60;;;;;;4960149;28;20226;-86
2021/08/25 01:23:28;;;;;;;9.40;8.67;;;16.00;81.90;;;;;;4955522;28;20670;-86
2021/08/25 01:25:56;;;;;;;10.60;9.20;;;15.90;82.50;;;;;;4952689;28;20684;-86
2021/08/25 01:28:24;;;;;;;10.03;9.10;;;15.80;82.70;;;;;;4954215;28;20191;-86
2021/08/25 01:30:50;;;;;;;10.53;9.63;;;15.80;83.20;;;;;;4957028;28;20262;-86
2021/08/25 01:33:23;;;;;;;10.53;9.50;;;15.80;83.20;;;;;;4950981;28;20186;-85
2021/08/25 01:35:50;;;;;;;11.23;10.17;;;15.80;83.00;;;;;;4955009;29;20172;-86
2021/08/25 01:38:35;;;;;;;10.23;9.23;;;15.70;83.30;;;;;;4955934;28;20283;-86
2021/08/25 01:41:02;;;;;;;10.37;9.47;;;15.70;83.40;;;;;;4955484;28;20193;-85
2021/08/25 01:43:28;;;;;;;10.70;9.80;;;15.60;83.60;;;;;;4943603;28;20258;-86
2021/08/25 01:45:53;;;;;;;10.93;9.90;;;15.50;83.90;;;;;;4964359;28;20578;-84
2021/08/25 01:48:21;;;;;;;10.53;9.73;;;15.50;84.00;;;;;;4949526;28;20218;-86
2021/08/25 01:50:47;;;;;;;11.10;10.00;;;15.50;84.60;;;;;;4954956;28;20215;-86
2021/08/25 01:53:16;;;;;;;10.20;9.40;;;15.40;84.90;;;;;;4957456;28;20803;-86
2021/08/25 01:55:42;;;;;;;9.87;9.07;;;15.40;85.40;;;;;;4958866;28;20235;-85
2021/08/25 01:58:08;;;;;;;10.50;9.57;;;15.50;84.40;;;;;;4955037;28;20184;-86
2021/08/25 02:00:34;;;;;;;11.17;10.17;;;15.60;83.80;;;;;;4955807;29;20298;-85
2021/08/25 02:02:59;;;;;;;10.37;9.43;;;15.50;83.80;;;;;;4969484;28;20206;-85
2021/08/25 02:05:25;;;;;;;10.23;9.43;;;15.60;83.60;;;;;;4952627;28;20228;-86
2021/08/25 02:07:51;;;;;;;10.13;9.33;;;15.60;83.90;;;;;;4958749;28;20246;-86
2021/08/25 02:10:17;;;;;;;9.80;9.00;;;15.80;83.50;;;;;;4954202;28;20255;-85
2021/08/25 02:12:42;;;;;;;9.87;9.07;;;15.80;82.50;;;;;;4951836;28;20752;-85
2021/08/25 02:15:08;;;;;;;11.30;10.27;;;15.80;82.10;;;;;;4953431;28;20230;-86
2021/08/25 02:17:34;;;;;;;10.90;10.00;;;15.80;81.90;;;;;;4954168;29;20203;-85
2021/08/25 02:20:00;;;;;;;10.53;9.63;;;15.70;82.80;;;;;;4953503;28;20207;-86
2021/08/25 02:22:25;;;;;;;10.43;9.50;;;15.60;83.10;;;;;;4966613;28;20653;-87
2021/08/25 02:24:51;;;;;;;10.10;9.30;;;15.60;83.20;;;;;;4964846;28;20266;-86
2021/08/25 02:27:17;;;;;;;9.70;8.90;;;15.50;83.10;;;;;;4950601;28;20262;-86
2021/08/25 02:29:42;;;;;;;10.10;9.27;;;15.50;83.80;;;;;;4953791;29;20236;-86
2021/08/25 02:32:08;;;;;;;10.80;9.90;;;15.60;83.40;;;;;;4956232;28;20251;-86
2021/08/25 02:34:34;;;;;;;10.40;9.23;;;15.60;83.10;;;;;;4956581;28;20226;-86
2021/08/25 02:36:59;;;;;;;9.80;9.00;;;15.50;83.70;;;;;;4947488;28;20206;-86
2021/08/25 02:39:25;;;;;;;11.00;10.00;;;15.50;84.10;;;;;;4955690;28;20215;-85
2021/08/25 02:41:51;;;;;;;9.97;9.17;;;15.40;83.90;;;;;;4959509;28;20239;-86
2021/08/25 02:44:16;;;;;;;10.30;9.40;;;15.50;83.90;;;;;;4968529;28;20246;-84
2021/08/25 02:46:42;;;;;;;10.43;9.53;;;15.50;83.10;;;;;;4972445;28;20221;-87
2021/08/25 02:49:08;;;;;;;10.43;9.43;;;15.40;84.10;;;;;;4983002;28;20251;-84
2021/08/25 02:51:33;;;;;;;10.13;9.13;;;15.30;84.40;;;;;;4985512;28;20202;-84
2021/08/25 02:53:59;;;;;;;10.07;9.17;;;15.30;84.60;;;;;;4955627;28;20227;-85
2021/08/25 02:56:26;;;;;;;11.00;10.10;;;15.30;84.70;;;;;;4958381;29;20234;-87
2021/08/25 02:58:52;;;;;;;10.50;9.60;;;15.10;85.30;;;;;;4962929;28;20261;-86
2021/08/25 03:01:17;;;;;;;10.70;9.80;;;15.00;85.70;;;;;;4956606;28;20303;-86
2021/08/25 03:03:43;;;;;;;9.97;9.03;;;15.10;85.60;;;;;;4957549;28;20206;-86
2021/08/25 03:06:09;;;;;;;10.27;9.27;;;15.10;85.70;;;;;;4956211;28;20202;-86
2021/08/25 03:08:37;;;;;;;10.60;9.70;;;15.20;85.00;;;;;;4959619;28;20711;-86
2021/08/25 03:11:03;;;;;;;9.73;8.93;;;15.10;85.20;;;;;;4952849;29;20206;-86
2021/08/25 03:13:29;;;;;;;10.87;9.97;;;15.00;85.40;;;;;;4953390;28;20203;-86
2021/08/25 03:15:54;;;;;;;10.40;9.50;;;15.00;85.90;;;;;;4966157;28;20208;-86
2021/08/25 03:18:20;;;;;;;10.93;9.93;;;15.00;85.90;;;;;;4955711;28;20216;-86
2021/08/25 03:20:46;;;;;;;11.40;10.37;;;15.10;85.60;;;;;;4969000;28;20675;-86
2021/08/25 03:23:11;;;;;;;10.47;9.57;;;15.00;85.60;;;;;;4955101;28;20203;-86
2021/08/25 03:25:37;;;;;;;10.07;9.27;;;15.00;85.20;;;;;;4953150;28;20227;-86
2021/08/25 03:28:03;;;;;;;10.53;9.57;;;15.00;85.90;;;;;;4958125;28;20198;-86
2021/08/25 03:30:28;;;;;;;10.77;9.80;;;15.00;85.60;;;;;;4957105;28;20227;-86
2021/08/25 03:32:54;;;;;;;10.97;9.57;;;15.10;85.60;;;;;;4956525;28;20203;-86
2021/08/25 03:35:20;;;;;;;10.43;9.63;;;15.10;85.40;;;;;;4964106;28;20225;-85
2021/08/25 03:37:45;;;;;;;10.77;9.87;;;15.00;85.30;;;;;;4960748;28;20614;-86
2021/08/25 03:40:11;;;;;;;9.93;8.93;;;15.00;85.30;;;;;;4955216;29;20202;-86
2021/08/25 03:42:37;;;;;;;10.73;9.83;;;15.10;85.60;;;;;;4958662;28;20222;-86
2021/08/25 03:45:03;;;;;;;9.67;8.93;;;15.10;85.20;;;;;;4956186;28;20594;-86
2021/08/25 03:47:31;;;;;;;10.33;9.43;;;15.10;84.80;;;;;;4955973;28;20202;-86
2021/08/25 03:49:57;;;;;;;9.90;9.00;;;15.20;84.70;;;;;;4957663;28;20224;-86
2021/08/25 03:52:23;;;;;;;9.10;8.40;;;15.30;84.50;;;;;;4961901;28;20189;-87
2021/08/25 03:54:48;;;;;;;9.40;8.60;;;15.40;83.90;;;;;;4954446;28;20276;-85
2021/08/25 03:57:14;;;;;;;9.83;9.03;;;15.40;83.90;;;;;;4957542;28;21684;-86
2021/08/25 03:59:40;;;;;;;9.90;8.90;;;15.50;83.50;;;;;;4956899;29;20538;-86
2021/08/25 04:02:05;;;;;;;8.93;8.23;;;15.60;83.10;;;;;;4955923;28;20362;-86
2021/08/25 04:04:31;;;;;;;9.90;8.97;;;15.70;83.40;;;;;;4955937;28;20226;-86
2021/08/25 04:06:57;;;;;;;9.70;8.90;;;15.70;82.30;;;;;;4957862;29;20255;-87
2021/08/25 04:09:22;;;;;;;10.63;8.50;;;15.70;82.90;;;;;;4968661;28;20223;-86
2021/08/25 04:11:48;;;;;;;9.43;8.63;;;15.80;81.70;;;;;;4959192;28;20199;-86
2021/08/25 04:14:14;;;;;;;9.10;8.30;;;15.80;81.90;;;;;;4957991;28;20713;-86
2021/08/25 04:16:39;;;;;;;9.20;8.50;;;15.80;81.40;;;;;;4947749;28;20223;-85
2021/08/25 04:19:05;;;;;;;9.47;8.77;;;15.80;81.80;;;;;;4954979;28;20733;-86
2021/08/25 04:21:31;;;;;;;8.93;8.13;;;15.80;82.60;;;;;;4972368;28;20223;-86
2021/08/25 04:23:56;;;;;;;9.60;8.87;;;15.70;81.70;;;;;;4974141;28;20211;-86
2021/08/25 04:26:22;;;;;;;9.23;8.47;;;15.80;81.70;;;;;;4958065;28;20199;-86
2021/08/25 04:28:48;;;;;;;10.23;9.30;;;15.80;80.90;;;;;;4955839;28;20555;-85
2021/08/25 04:31:14;;;;;;;8.90;8.20;;;15.70;80.70;;;;;;4955735;28;20219;-86
2021/08/25 04:33:39;;;;;;;8.93;8.23;;;15.60;82.50;;;;;;4970994;28;20254;-86
2021/08/25 04:36:05;;;;;;;9.00;8.30;;;15.70;81.90;;;;;;4959168;28;20733;-86
2021/08/25 04:38:31;;;;;;;10.73;9.73;;;15.70;81.80;;;;;;4974051;28;20207;-85
2021/08/25 04:40:58;;;;;;;10.13;9.33;;;15.70;81.20;;;;;;4958418;28;20239;-85
2021/08/25 04:43:25;;;;;;;8.90;8.30;;;15.70;81.30;;;;;;4958584;28;20366;-85
2021/08/25 04:45:51;;;;;;;12.00;9.47;;;15.70;81.60;;;;;;4948455;28;20570;-84
2021/08/25 04:48:17;;;;;;;10.07;9.17;;;15.70;81.10;;;;;;4950040;28;20208;-85
2021/08/25 04:50:43;;;;;;;9.80;9.00;;;15.60;81.50;;;;;;4970217;28;20233;-85
2021/08/25 04:53:08;;;;;;;10.07;9.17;;;15.50;81.90;;;;;;4955710;28;20206;-85
2021/08/25 04:55:35;;;;;;;10.00;9.03;;;15.40;82.40;;;;;;4954743;29;20294;-85
2021/08/25 04:58:02;;;;;;;10.23;9.43;;;15.20;82.90;;;;;;4950905;28;20187;-85
2021/08/25 05:00:27;;;;;;;10.03;9.13;;;15.20;83.70;;;;;;4956187;28;20280;-85
2021/08/25 05:02:53;;;;;;;9.63;8.73;;;15.10;84.30;;;;;;4955303;28;20274;-85
2021/08/25 05:05:19;;;;;;;9.60;8.80;;;15.10;84.30;;;;;;4956847;28;20226;-85
2021/08/25 05:07:44;;;;;;;10.40;9.60;;;15.10;84.30;;;;;;4974882;28;20246;-83
2021/08/25 05:10:10;;;;;;;10.40;9.57;;;15.10;83.70;;;;;;4974404;28;20217;-85
2021/08/25 05:12:36;;;;;;;10.63;9.53;;;15.10;84.20;;;;;;4962653;28;20195;-84
2021/08/25 05:15:03;;;;;;;10.23;9.37;;;15.10;84.50;;;;;;4987338;28;20220;-84
2021/08/25 05:17:30;;;;;;;10.37;9.57;;;15.10;84.10;;;;;;4957076;28;20202;-85
2021/08/25 05:20:03;;;;;;;9.80;9.00;;;15.00;84.30;;;;;;4956154;29;20191;-85
2021/08/25 05:22:28;;;;;;;10.30;9.40;;;15.00;84.60;;;;;;4955683;28;20206;-87
2021/08/25 05:24:54;;;;;;;10.63;9.57;;;14.90;84.70;;;;;;4950240;29;20282;-85
2021/08/25 05:27:20;;;;;;;9.87;8.87;;;15.00;85.00;;;;;;4967721;28;20208;-85
2021/08/25 05:29:45;;;;;;;10.63;9.73;;;15.00;84.60;;;;;;4955960;28;20752;-85
2021/08/25 05:32:11;;;;;;;10.57;9.67;;;15.00;84.90;;;;;;4970990;28;20198;-85
2021/08/25 05:34:36;;;;;;;10.87;9.87;;;14.90;84.90;;;;;;4956399;28;20225;-85
2021/08/25 05:37:02;;;;;;;10.70;9.73;;;14.90;85.00;;;;;;4955549;28;20278;-85
2021/08/25 05:39:28;;;;;;;11.47;10.43;;;14.80;85.80;;;;;;4959162;28;20199;-85
2021/08/25 05:41:54;;;;;;;11.00;10.10;;;14.90;85.80;;;;;;4954197;28;20213;-85
2021/08/25 05:44:20;;;;;;;10.27;9.47;;;14.90;85.40;;;;;;4950494;28;20249;-85
2021/08/25 05:46:45;;;;;;;10.17;9.20;;;15.00;85.50;;;;;;4945874;28;20210;-85
2021/08/25 05:49:11;;;;;;;11.50;10.33;;;15.00;85.40;;;;;;4954120;28;20249;-85
2021/08/25 05:51:37;;;;;;;10.07;9.20;;;15.10;84.80;;;;;;4944182;29;20207;-85
2021/08/25 05:54:03;;;;;;;10.13;9.00;;;15.10;85.20;;;;;;4951369;28;20242;-86
2021/08/25 05:56:28;;;;;;;9.70;8.90;;;15.10;85.40;;;;;;4951160;28;20194;-86
2021/08/25 05:58:54;;;;;;;10.43;9.53;;;15.20;84.70;;;;;;4967849;28;20568;-86
2021/08/25 06:01:20;;;;;;;9.83;8.83;;;15.20;84.80;;;;;;4955284;28;20857;-86
2021/08/25 06:03:46;;;;;;;10.23;9.23;;;15.30;84.70;;;;;;4965127;28;20299;-85
2021/08/25 06:06:12;;;;;;;11.03;10.03;;;15.30;84.60;;;;;;4955776;28;20219;-86
2021/08/25 06:08:38;;;;;;;10.37;9.47;;;15.20;84.30;;;;;;4947490;28;20310;-86
2021/08/25 06:11:04;;;;;;;10.33;9.30;;;15.20;84.70;;;;;;4947036;28;20667;-86
2021/08/25 06:13:30;;;;;;;10.47;9.57;;;15.20;85.00;;;;;;4961435;28;20207;-86
2021/08/25 06:15:56;;;;;;;10.20;9.33;;;15.10;85.00;;;;;;4950727;28;20210;-86
2021/08/25 06:18:21;;;;;;;11.00;10.00;;;15.10;85.70;;;;;;4966931;28;20309;-85
2021/08/25 06:20:47;;;;;;;10.20;9.40;;;15.20;84.80;;;;;;4956982;28;20206;-86
2021/08/25 06:23:13;;;;;;;10.80;9.73;;;15.20;84.90;;;;;;4988102;28;20293;-86
2021/08/25 06:25:40;;;;;;;10.60;9.57;;;15.20;84.80;;;;;;4957704;28;20224;-86
2021/08/25 06:28:06;;;;;;;10.80;9.80;;;15.30;84.80;;;;;;4957253;28;20466;-86
2021/08/25 06:30:32;;;;;;;10.17;9.37;;;15.30;84.30;;;;;;4954734;29;20686;-86
2021/08/25 06:32:58;;;;;;;9.83;8.93;;;15.40;84.40;;;;;;4954697;28;20572;-86
2021/08/25 06:35:23;;;;;;;10.17;9.27;;;15.40;84.60;;;;;;4954888;28;20644;-86
2021/08/25 06:37:49;;;;;;;10.37;9.43;;;15.40;84.40;;;;;;4957725;28;20699;-86
2021/08/25 06:40:15;;;;;;;10.10;9.23;;;15.40;84.20;;;;;;4955474;28;20208;-86
2021/08/25 06:42:42;;;;;;;9.87;8.97;;;15.40;84.10;;;;;;4951956;28;20203;-85
2021/08/25 06:45:08;;;;;;;10.77;9.83;;;15.40;84.20;;;;;;4954811;28;20247;-85
2021/08/25 06:47:35;;;;;;;9.87;9.10;;;15.50;83.80;;;;;;4958605;28;20245;-85
2021/08/25 06:50:01;;;;;;;9.33;8.37;;;15.60;83.60;;;;;;4952895;28;20224;-85
2021/08/25 06:52:27;;;;;;;10.43;9.60;;;15.70;83.30;;;;;;4952963;28;20224;-85
2021/08/25 06:54:52;;;;;;;10.33;9.33;;;15.80;83.20;;;;;;4955579;28;20217;-85
2021/08/25 06:57:18;;;;;;;10.77;9.87;;;15.90;83.00;;;;;;4955725;28;20226;-85
2021/08/25 06:59:44;;;;;;;10.40;9.40;;;15.90;82.90;;;;;;4954737;28;20211;-85
2021/08/25 07:02:09;;;;;;;9.63;8.73;;;15.90;82.30;;;;;;4956213;28;20245;-85
2021/08/25 07:04:35;;;;;;;12.37;9.50;;;16.00;82.10;;;;;;4954516;29;20432;-85
2021/08/25 07:07:01;;;;;;;10.50;9.33;;;16.00;82.20;;;;;;4957366;28;20617;-85
2021/08/25 07:09:26;;;;;;;10.17;9.27;;;16.00;82.30;;;;;;4955522;29;20230;-85
2021/08/25 07:11:52;;;;;;;10.50;9.30;;;16.00;81.80;;;;;;4954373;28;20189;-85
2021/08/25 07:14:18;;;;;;;9.97;8.97;;;16.10;81.80;;;;;;4970713;28;20758;-85
2021/08/25 07:16:43;;;;;;;9.80;8.97;;;16.00;81.90;;;;;;4959532;28;20188;-85
2021/08/25 07:19:09;;;;;;;9.43;8.63;;;16.10;82.00;;;;;;4955748;28;20526;-85
2021/08/25 07:21:35;;;;;;;9.77;9.00;;;16.20;81.80;;;;;;4956229;28;20435;-85
2021/08/25 07:24:03;;;;;;;9.97;8.97;;;16.40;81.10;;;;;;4954346;28;20556;-85
2021/08/25 07:26:28;;;;;;;9.70;8.80;;;16.40;80.70;;;;;;4956734;28;20197;-85
2021/08/25 07:28:54;;;;;;;9.70;8.90;;;16.40;80.30;;;;;;4965845;28;20429;-85
2021/08/25 07:31:20;;;;;;;8.67;7.97;;;16.60;80.20;;;;;;4970775;28;20217;-85
2021/08/25 07:33:45;;;;;;;9.20;8.40;;;16.70;79.70;;;;;;4965725;28;20213;-85
2021/08/25 07:36:11;;;;;;;8.87;8.07;;;16.90;79.90;;;;;;4967363;28;20485;-85
2021/08/25 07:38:37;;;;;;;9.90;8.93;;;17.00;78.60;;;;;;4973528;28;20180;-84
2021/08/25 07:41:04;;;;;;;9.13;8.43;;;17.10;77.70;;;;;;4990799;28;20196;-85
2021/08/25 07:43:29;;;;;;;9.10;8.23;;;17.10;76.90;;;;;;4958617;28;20204;-85
2021/08/25 07:45:55;;;;;;;9.73;8.80;;;17.10;77.40;;;;;;4964391;28;20294;-85
2021/08/25 07:48:21;;;;;;;9.07;8.30;;;17.20;77.00;;;;;;4958969;29;20354;-85
2021/08/25 07:50:49;;;;;;;9.50;8.50;;;17.20;77.20;;;;;;4958002;28;20234;-86
2021/08/25 07:53:16;;;;;;;8.97;8.00;;;17.30;76.80;;;;;;4957771;28;20253;-85
2021/08/25 07:55:41;;;;;;;9.17;8.43;;;17.40;76.70;;;;;;4972431;28;20241;-86
2021/08/25 07:58:07;;;;;;;9.13;8.10;;;17.50;76.80;;;;;;4959048;28;20683;-85
2021/08/25 08:00:37;;;;;;;8.83;8.13;;;17.60;75.70;;;;;;4973736;28;20220;-85
2021/08/25 08:03:03;;;;;;;8.13;7.50;;;17.70;74.80;;;;;;4971738;28;20203;-85
2021/08/25 08:05:29;;;;;;;8.33;7.63;;;17.80;74.50;;;;;;4971959;28;20580;-85
2021/08/25 08:07:56;;;;;;;9.43;8.63;;;17.80;74.20;;;;;;4959684;28;20195;-86
2021/08/25 08:10:22;;;;;;;9.13;8.33;;;17.90;74.90;;;;;;4955421;28;20226;-85
2021/08/25 08:12:48;;;;;;;8.00;7.30;;;18.00;73.40;;;;;;4974162;28;20187;-85
2021/08/25 08:15:14;;;;;;;9.07;8.27;;;17.90;74.30;;;;;;4958772;28;20276;-85
2021/08/25 08:17:47;;;;;;;8.90;8.00;;;17.90;74.20;;;;;;4952725;28;20203;-85
2021/08/25 08:20:15;;;;;;;8.37;7.70;;;17.90;74.60;;;;;;4959066;29;20211;-85
2021/08/25 08:22:41;;;;;;;8.40;7.60;;;18.20;74.60;;;;;;4958358;28;20232;-85
2021/08/25 08:25:07;;;;;;;7.67;7.07;;;18.30;74.10;;;;;;4971588;28;20284;-85
2021/08/25 08:27:33;;;;;;;8.17;7.43;;;18.40;73.80;;;;;;4958183;28;20255;-86
2021/08/25 08:30:00;;;;;;;8.10;7.40;;;18.50;73.50;;;;;;4954632;28;20228;-85
2021/08/25 08:32:26;;;;;;;8.47;7.67;;;18.50;73.00;;;;;;4955073;28;20289;-86
2021/08/25 08:34:52;;;;;;;7.43;6.73;;;18.60;73.20;;;;;;4955560;28;20280;-85
2021/08/25 08:37:18;;;;;;;8.63;7.77;;;18.80;72.00;;;;;;4958654;28;20205;-86
2021/08/25 08:39:43;;;;;;;8.43;7.68;;;18.80;70.60;;;;;;4956882;28;20661;-86
2021/08/25 08:42:28;;;;;;;7.97;7.28;;;19.00;70.90;;;;;;4956013;28;20199;-86
2021/08/25 08:44:56;;;;;;;8.73;7.93;;;19.00;70.50;;;;;;4953416;28;20210;-85
2021/08/25 08:47:23;;;;;;;8.63;7.82;;;19.10;70.70;;;;;;4959646;28;20194;-85
2021/08/25 08:49:52;;;;;;;7.93;7.33;;;19.00;69.20;;;;;;4958810;28;20219;-86
2021/08/25 08:52:19;;;;;;;8.40;7.60;;;19.00;70.00;;;;;;4960661;28;20198;-85
2021/08/25 08:54:45;;;;;;;7.73;7.03;;;19.10;70.20;;;;;;4967898;28;20194;-85
2021/08/25 08:57:11;;;;;;;8.45;7.80;;;19.30;71.20;;;;;;4962834;29;20207;-85
2021/08/25 08:59:37;;;;;;;8.27;7.50;;;19.50;67.80;;;;;;4956611;28;20729;-86
2021/08/25 09:02:02;;;;;;;7.40;6.82;;;19.60;68.70;;;;;;4952511;28;20200;-85
2021/08/25 09:04:34;;;;;;;7.80;7.10;;;19.80;68.00;;;;;;4958869;28;20226;-85
2021/08/25 09:06:59;;;;;;;8.20;7.40;;;20.00;66.40;;;;;;4960365;28;20197;-86
2021/08/25 09:09:26;;;;;;;7.05;6.47;;;20.10;66.20;;;;;;4962625;28;20287;-86
2021/08/25 09:11:54;;;;;;;7.32;6.72;;;20.20;66.00;;;;;;4957188;28;20211;-86
2021/08/25 09:14:23;;;;;;;7.80;6.93;;;20.30;65.50;;;;;;4967668;28;20223;-85
2021/08/25 09:16:49;;;;;;;7.75;7.03;;;20.40;63.40;;;;;;4952416;28;20222;-86
2021/08/25 09:19:19;;;;;;;7.78;7.00;;;20.50;64.70;;;;;;4951798;28;20206;-85
2021/08/25 09:21:50;;;;;;;7.70;7.00;;;20.60;63.60;;;;;;4952149;28;20199;-85
2021/08/25 09:24:20;;;;;;;6.90;6.40;;;20.70;63.60;;;;;;4955336;28;20207;-86
2021/08/25 09:27:08;;;;;;;7.57;6.97;;;20.70;63.80;;;;;;4953172;28;20186;-86
2021/08/25 09:29:36;;;;;;;8.32;6.82;;;20.70;63.30;;;;;;4951816;28;20241;-86
2021/08/25 09:32:03;;;;;;;7.70;7.00;;;20.70;63.20;;;;;;4953385;29;20257;-85
2021/08/25 09:34:33;;;;;;;8.00;6.75;;;20.70;63.40;;;;;;4952660;28;20219;-85
2021/08/25 09:37:11;;;;;;;8.00;7.30;;;21.00;64.20;;;;;;4952849;28;20215;-86
2021/08/25 09:39:48;;;;;;;7.07;6.05;;;21.20;60.00;;;;;;4952549;28;20201;-86
2021/08/25 09:42:16;;;;;;;7.50;6.68;;;21.40;60.90;;;;;;4952826;28;20188;-85
2021/08/25 09:44:43;;;;;;;7.40;6.80;;;21.50;60.70;;;;;;4953158;28;20219;-85
2021/08/25 09:47:09;;;;;;;7.18;6.47;;;21.60;59.90;;;;;;4949879;28;20289;-86
2021/08/25 09:49:34;;;;;;;7.35;6.75;;;21.80;59.00;;;;;;4953111;28;20300;-85
2021/08/25 09:52:00;;;;;;;6.53;6.03;;;21.90;56.40;;;;;;4968740;28;20300;-85
2021/08/25 09:54:26;;;;;;;6.35;5.75;;;21.80;57.50;;;;;;4978240;28;20648;-85
2021/08/25 09:56:53;;;;;;;6.65;6.05;;;21.90;58.10;;;;;;4976354;28;20275;-85
2021/08/25 09:59:20;;;;;;;7.57;6.25;;;22.20;56.00;;;;;;4973433;28;20189;-84
2021/08/25 10:01:47;;;;;;;6.82;6.15;;;22.40;56.60;;;;;;4979314;28;20213;-85
2021/08/25 10:04:16;;;;;;;6.78;5.78;;;22.50;57.20;;;;;;4958969;28;20350;-86
2021/08/25 10:06:44;;;;;;;6.63;5.20;;;22.60;55.70;;;;;;4963736;29;20199;-85
2021/08/25 10:09:11;;;;;;;7.40;6.57;;;22.70;54.60;;;;;;4961615;28;20286;-86
2021/08/25 10:11:56;;;;;;;6.55;6.03;;;22.80;54.30;;;;;;4961705;28;20649;-86
2021/08/25 10:14:22;;;;;;;6.97;6.30;;;22.70;54.60;;;;;;4960145;28;20245;-85
2021/08/25 10:16:52;;;;;;;6.60;5.90;;;22.70;54.00;;;;;;4962951;28;20188;-86
2021/08/25 10:19:39;;;;;;;7.35;6.07;;;22.90;53.50;;;;;;4967759;28;20207;-85
2021/08/25 10:22:16;;;;;;;7.68;6.90;;;23.10;52.50;;;;;;4961808;28;20186;-86
2021/08/25 10:24:54;;;;;;;7.10;6.40;;;23.20;52.30;;;;;;4959054;28;20218;-85
2021/08/25 10:27:21;;;;;;;6.32;5.70;;;23.40;52.30;;;;;;4962620;28;20187;-85
2021/08/25 10:30:02;;;;;;;6.63;5.90;;;23.10;52.20;;;;;;4959346;28;20228;-86
2021/08/25 10:32:33;;;;;;;7.22;5.97;;;23.10;52.50;;;;;;4961847;28;20198;-86
2021/08/25 10:35:14;;;;;;;6.60;6.00;;;23.30;51.40;;;;;;4958346;28;20896;-86
2021/08/25 10:37:40;;;;;;;7.55;5.35;;;23.50;51.30;;;;;;4961133;28;20657;-86
2021/08/25 10:40:08;;;;;;;5.68;5.18;;;23.30;52.00;;;;;;4958641;28;20843;-85
2021/08/25 10:42:46;;;;;;;6.45;5.90;;;23.60;50.60;;;;;;4961774;28;20232;-86
2021/08/25 10:45:12;;;;;;;7.10;6.40;;;23.50;50.30;;;;;;4959582;28;20217;-85
2021/08/25 10:48:09;;;;;;;6.53;5.85;;;23.40;50.10;;;;;;4961982;28;20222;-85
2021/08/25 10:50:49;;;;;;;6.80;5.68;;;23.60;50.60;;;;;;4955538;28;20681;-85
2021/08/25 10:53:31;;;;;;;6.45;5.88;;;23.90;46.70;;;;;;4959840;28;20193;-85
2021/08/25 10:56:18;;;;;;;6.13;5.60;;;24.30;46.30;;;;;;4959890;29;20190;-86
2021/08/25 10:58:58;;;;;;;7.32;6.20;;;24.30;45.00;;;;;;4972470;28;20547;-85
2021/08/25 11:01:29;;;;;;;5.57;5.13;;;24.20;44.20;;;;;;4957716;28;20282;-85
2021/08/25 11:03:57;;;;;;;6.72;6.00;;;24.40;45.00;;;;;;4957119;28;20239;-86
2021/08/25 11:06:31;;;;;;;7.72;6.00;;;24.70;44.10;;;;;;4954689;28;20722;-85
2021/08/25 11:09:35;;;;;;;6.93;6.22;;;25.10;44.10;;;;;;4952282;29;20942;-86
2021/08/25 11:12:14;;;;;;;7.20;6.20;;;24.80;41.50;;;;;;4951436;29;20187;-86
2021/08/25 11:14:51;;;;;;;5.95;5.45;;;24.70;42.00;;;;;;4956653;28;20248;-85
2021/08/25 11:17:22;;;;;;;6.22;5.63;;;24.80;42.20;;;;;;4957968;28;20982;-85
2021/08/25 11:19:52;;;;;;;5.93;5.43;;;25.10;42.20;;;;;;4957500;28;20196;-85
2021/08/25 11:22:31;;;;;;;5.93;5.43;;;25.00;42.00;;;;;;4953645;28;20203;-85
2021/08/25 11:24:58;;;;;;;6.00;5.45;;;25.10;40.90;;;;;;4957989;29;20567;-85
2021/08/25 11:27:39;;;;;;;6.68;5.72;;;25.30;40.70;;;;;;4957900;28;20528;-85
2021/08/25 11:30:04;;;;;;;6.38;5.78;;;25.30;36.90;;;;;;4955129;28;20215;-85
2021/08/25 11:32:30;;;;;;;5.35;4.90;;;25.60;38.40;;;;;;4956522;28;20195;-85
2021/08/25 11:34:57;;;;;;;7.43;5.88;;;25.70;37.90;;;;;;4955070;29;20211;-85
2021/08/25 11:37:23;;;;;;;6.78;5.13;;;25.70;37.80;;;;;;4957963;28;20187;-85
2021/08/25 11:40:05;;;;;;;5.90;5.40;;;25.70;37.90;;;;;;4973875;28;20248;-85
2021/08/25 11:42:35;;;;;;;7.07;5.50;;;25.80;37.90;;;;;;4955942;28;20214;-85
2021/08/25 11:45:17;;;;;;;6.60;6.00;;;25.90;37.20;;;;;;4963599;28;20231;-85
2021/08/25 11:47:53;;;;;;;6.07;5.47;;;25.80;36.40;;;;;;4952703;28;20587;-85
2021/08/25 11:50:23;;;;;;;6.55;5.60;;;25.70;36.00;;;;;;4958939;29;20214;-86
2021/08/25 11:52:49;;;;;;;5.82;5.32;;;25.90;36.50;;;;;;4976236;28;20196;-84
2021/08/25 11:55:16;;;;;;;6.13;5.53;;;26.10;35.70;;;;;;4959959;28;20208;-84
2021/08/25 11:57:46;;;;;;;6.03;5.47;;;26.20;35.90;;;;;;4958277;28;20179;-84
2021/08/25 12:00:35;;;;;;;6.22;5.63;;;26.20;35.40;;;;;;4961545;29;20571;-84
2021/08/25 12:03:03;;;;;;;6.15;5.03;;;26.40;34.90;;;;;;4962088;28;20195;-85
2021/08/25 12:05:30;;;;;;;6.25;5.65;;;26.80;33.60;;;;;;4960730;28;20306;-85
2021/08/25 12:08:02;;;;;;;5.43;4.93;;;26.80;35.30;;;;;;4961772;29;20200;-85
2021/08/25 12:10:28;;;;;;;6.32;5.70;;;27.30;35.00;;;;;;4968845;28;20238;-85
2021/08/25 12:12:56;;;;;;;6.13;5.53;;;27.30;34.10;;;;;;4959418;28;20213;-85
2021/08/25 12:15:47;;;;;;;5.72;5.22;;;27.40;34.60;;;;;;4968866;28;20211;-84
2021/08/25 12:18:15;;;;;;;7.60;5.43;;;27.50;34.40;;;;;;4959689;28;20207;-85
2021/08/25 12:20:43;;;;;;;5.75;5.25;;;27.60;32.90;;;;;;4977405;28;20207;-84
2021/08/25 12:23:11;;;;;;;6.25;5.65;;;27.40;33.70;;;;;;4969495;28;20199;-85
2021/08/25 12:25:44;;;;;;;6.22;5.63;;;28.00;32.60;;;;;;4955964;28;20195;-85
2021/08/25 12:28:13;;;;;;;6.03;5.45;;;27.80;31.70;;;;;;4972034;28;20191;-85
2021/08/25 12:30:41;;;;;;;6.40;5.78;;;27.40;32.90;;;;;;4973292;28;20215;-85
2021/08/25 12:33:10;;;;;;;5.82;5.20;;;26.60;34.20;;;;;;4959052;28;20223;-85
2021/08/25 12:35:37;;;;;;;6.65;6.07;;;26.60;33.40;;;;;;4956813;28;20645;-85
2021/08/25 12:38:07;;;;;;;5.85;5.20;;;27.10;34.00;;;;;;4959041;28;20325;-86
2021/08/25 12:40:34;;;;;;;7.63;6.00;;;27.40;33.50;;;;;;4955437;28;20192;-85
2021/08/25 12:43:00;;;;;;;6.90;5.97;;;27.80;31.70;;;;;;4955818;28;20192;-85
2021/08/25 12:45:27;;;;;;;6.40;5.78;;;27.60;33.20;;;;;;4956273;28;20231;-86
2021/08/25 12:47:55;;;;;;;6.70;6.07;;;27.90;33.50;;;;;;4957229;28;20226;-86